createdAt,value
2023-05-14T00:02:02.225Z,71.40
2023-05-14T00:04:49.396Z,71.30
2023-05-14T00:07:36.999Z,71.30
2023-05-14T00:10:24.305Z,71.20
2023-05-14T00:13:11.668Z,71.10
2023-05-14T00:15:58.852Z,71.20
2023-05-14T00:18:46.122Z,71.30
2023-05-14T00:21:33.637Z,71.40
2023-05-14T00:24:20.867Z,71.50
2023-05-14T00:27:08.118Z,71.50
2023-05-14T00:29:55.328Z,71.40
2023-05-14T00:32:42.529Z,71.60
2023-05-14T00:35:30.439Z,71.40
2023-05-14T00:38:19.484Z,71.60
2023-05-14T00:41:06.767Z,71.50
2023-05-14T00:43:53.896Z,71.50
2023-05-14T00:46:41.323Z,71.60
2023-05-14T00:49:29.029Z,71.40
2023-05-14T00:52:16.940Z,71.50
2023-05-14T00:55:08.388Z,71.60
2023-05-14T00:57:57.961Z,71.60
2023-05-14T01:00:45.269Z,71.50
2023-05-14T01:03:33.429Z,71.60
2023-05-14T01:06:45.872Z,71.80
2023-05-14T01:09:42.649Z,72.10
2023-05-14T01:12:45.074Z,72.10
2023-05-14T01:15:34.764Z,72.30
2023-05-14T01:18:23.257Z,72.30
2023-05-14T01:21:40.899Z,72.20
2023-05-14T01:24:28.147Z,72.30
2023-05-14T01:27:18.042Z,72.10
2023-05-14T01:30:19.831Z,72.10
2023-05-14T01:33:11.918Z,72.30
2023-05-14T01:35:59.869Z,72.30
2023-05-14T01:38:49.588Z,72.40
2023-05-14T01:41:39.351Z,72.40
2023-05-14T01:44:26.708Z,72.20
2023-05-14T01:47:14.021Z,72.10
2023-05-14T01:50:01.239Z,72.30
2023-05-14T01:52:48.470Z,72.40
2023-05-14T01:55:35.746Z,72.40
2023-05-14T01:58:22.993Z,72.40
2023-05-14T02:01:10.248Z,72.40
2023-05-14T02:03:58.729Z,72.50
2023-05-14T02:06:46.022Z,72.60
2023-05-14T02:09:33.248Z,73.50
2023-05-14T02:12:20.440Z,72.80
2023-05-14T02:15:09.074Z,72.80
2023-05-14T02:17:56.325Z,72.80
2023-05-14T02:20:43.637Z,72.80
2023-05-14T02:23:40.311Z,72.70
2023-05-14T02:26:28.494Z,72.80
2023-05-14T02:29:16.164Z,72.90
2023-05-14T02:32:03.590Z,72.90
2023-05-14T02:34:50.878Z,73.80
2023-05-14T02:37:38.076Z,73.00
2023-05-14T02:40:25.762Z,73.10
2023-05-14T02:43:13.159Z,73.20
2023-05-14T02:46:00.465Z,73.20
2023-05-14T02:48:47.702Z,73.10
2023-05-14T02:51:34.983Z,73.10
2023-05-14T02:54:22.192Z,73.10
2023-05-14T02:57:09.405Z,73.20
2023-05-14T02:59:56.564Z,73.50
2023-05-14T03:02:44.781Z,74.20
2023-05-14T03:05:32.509Z,73.70
2023-05-14T03:08:19.680Z,73.70
2023-05-14T03:11:06.979Z,73.80
2023-05-14T03:13:54.202Z,73.80
2023-05-14T03:16:42.487Z,73.90
2023-05-14T03:19:29.825Z,74.00
2023-05-14T03:22:17.161Z,73.90
2023-05-14T03:25:04.644Z,73.80
2023-05-14T03:27:51.911Z,73.90
2023-05-14T03:30:40.041Z,73.80
2023-05-14T03:33:27.401Z,73.80
2023-05-14T03:36:14.593Z,73.70
2023-05-14T03:39:02.071Z,73.50
2023-05-14T03:41:49.325Z,73.70
2023-05-14T03:44:36.456Z,73.70
2023-05-14T03:47:23.885Z,73.70
2023-05-14T03:50:11.165Z,73.80
2023-05-14T03:52:58.399Z,73.80
2023-05-14T03:55:45.619Z,73.70
2023-05-14T03:58:32.904Z,73.70
2023-05-14T04:01:20.094Z,73.70
2023-05-14T04:04:07.412Z,73.70
2023-05-14T04:06:54.625Z,73.70
2023-05-14T04:09:41.936Z,73.60
2023-05-14T04:12:29.107Z,73.60
2023-05-14T04:15:16.388Z,73.60
2023-05-14T04:18:03.763Z,73.50
2023-05-14T04:20:51.065Z,73.50
2023-05-14T04:23:38.470Z,73.40
2023-05-14T04:26:26.237Z,73.40
2023-05-14T04:29:13.448Z,73.40
2023-05-14T04:32:00.994Z,73.40
2023-05-14T04:34:48.397Z,73.50
2023-05-14T04:37:35.851Z,73.50
2023-05-14T04:40:23.152Z,73.50
2023-05-14T04:43:10.860Z,73.40
2023-05-14T04:45:58.124Z,73.60
2023-05-14T04:48:45.433Z,73.70
2023-05-14T04:51:32.654Z,73.80
2023-05-14T04:54:19.940Z,73.80
2023-05-14T04:57:07.534Z,73.70
2023-05-14T04:59:54.784Z,73.70
2023-05-14T05:02:42.103Z,73.70
2023-05-14T05:05:29.381Z,73.80
2023-05-14T05:08:16.592Z,73.60
2023-05-14T05:11:04.164Z,73.50
2023-05-14T05:13:51.412Z,73.70
2023-05-14T05:16:38.818Z,73.70
2023-05-14T05:19:35.801Z,73.70
2023-05-14T05:22:27.416Z,73.90
2023-05-14T05:25:14.609Z,73.80
2023-05-14T05:28:01.823Z,74.50
2023-05-14T05:30:49.024Z,73.80
2023-05-14T05:33:36.355Z,73.90
2023-05-14T05:36:23.537Z,73.90
2023-05-14T05:39:10.733Z,73.90
2023-05-14T05:41:57.872Z,73.60
2023-05-14T05:44:45.176Z,73.50
2023-05-14T05:47:32.435Z,73.60
2023-05-14T05:50:20.150Z,73.60
2023-05-14T05:53:07.423Z,73.50
2023-05-14T05:55:54.604Z,73.70
2023-05-14T05:58:41.787Z,73.60
2023-05-14T06:01:29.506Z,73.60
2023-05-14T06:04:16.693Z,73.80
2023-05-14T06:07:04.396Z,73.80
2023-05-14T06:09:51.628Z,74.00
2023-05-14T06:12:38.890Z,73.90
2023-05-14T06:15:26.110Z,73.90
2023-05-14T06:18:13.400Z,73.70
2023-05-14T06:21:00.638Z,73.80
2023-05-14T06:23:47.848Z,73.60
2023-05-14T06:26:35.043Z,73.40
2023-05-14T06:29:22.307Z,73.40
2023-05-14T06:32:10.284Z,73.50
2023-05-14T06:34:57.589Z,73.60
2023-05-14T06:37:45.330Z,73.50
2023-05-14T06:40:32.552Z,73.50
2023-05-14T06:43:19.689Z,73.40
2023-05-14T06:46:07.208Z,73.30
2023-05-14T06:48:54.811Z,73.20
2023-05-14T06:51:42.597Z,73.10
2023-05-14T06:54:31.127Z,73.20
2023-05-14T06:57:18.310Z,73.30
2023-05-14T07:00:06.936Z,73.50
2023-05-14T07:02:54.133Z,73.60
2023-05-14T07:05:41.344Z,74.50
2023-05-14T07:08:28.550Z,73.70
2023-05-14T07:11:16.305Z,73.70
2023-05-14T07:14:03.571Z,73.60
2023-05-14T07:16:50.908Z,73.50
2023-05-14T07:19:38.124Z,73.50
2023-05-14T07:22:25.401Z,73.70
2023-05-14T07:25:12.868Z,73.60
2023-05-14T07:28:00.131Z,73.40
2023-05-14T07:30:47.318Z,73.40
2023-05-14T07:33:36.479Z,73.30
2023-05-14T07:36:23.811Z,73.40
2023-05-14T07:39:11.028Z,73.40
2023-05-14T07:41:58.372Z,73.30
2023-05-14T07:44:46.048Z,73.20
2023-05-14T07:47:33.367Z,73.10
2023-05-14T07:50:21.159Z,73.30
2023-05-14T07:53:08.413Z,73.50
2023-05-14T07:55:55.820Z,73.20
2023-05-14T07:58:43.909Z,73.30
2023-05-14T08:01:31.731Z,73.20
2023-05-14T08:04:18.971Z,73.30
2023-05-14T08:07:07.368Z,73.20
2023-05-14T08:09:54.657Z,73.20
2023-05-14T08:12:42.865Z,73.10
2023-05-14T08:15:30.284Z,73.10
2023-05-14T08:18:17.474Z,72.80
2023-05-14T08:21:04.873Z,73.00
2023-05-14T08:23:52.057Z,72.90
2023-05-14T08:26:39.221Z,72.80
2023-05-14T08:29:26.541Z,72.30
2023-05-14T08:32:22.537Z,72.30
2023-05-14T08:35:11.188Z,72.10
2023-05-14T08:37:58.483Z,71.80
2023-05-14T08:40:57.797Z,72.40
2023-05-14T08:43:57.017Z,71.70
2023-05-14T08:46:45.539Z,71.70
2023-05-14T08:49:44.567Z,71.60
2023-05-14T08:52:32.602Z,71.70
2023-05-14T08:55:20.680Z,71.80
2023-05-14T08:58:08.586Z,71.90
2023-05-14T09:00:56.614Z,72.00
2023-05-14T09:03:44.415Z,72.10
2023-05-14T09:06:32.484Z,72.10
2023-05-14T09:09:22.550Z,72.10
2023-05-14T09:12:10.478Z,72.60
2023-05-14T09:14:57.860Z,72.40
2023-05-14T09:17:47.996Z,72.20
2023-05-14T09:20:35.467Z,72.50
2023-05-14T09:23:25.584Z,71.90
2023-05-14T09:26:16.873Z,71.40
2023-05-14T09:29:04.288Z,71.30
2023-05-14T09:31:52.399Z,71.00
2023-05-14T09:34:40.623Z,71.00
2023-05-14T09:37:28.735Z,71.70
2023-05-14T09:40:17.629Z,71.60
2023-05-14T09:43:04.954Z,71.40
2023-05-14T09:45:52.939Z,71.40
2023-05-14T09:48:40.436Z,71.40
2023-05-14T09:51:31.649Z,71.40
2023-05-14T09:54:18.879Z,71.60
2023-05-14T09:57:06.303Z,71.50
2023-05-14T09:59:54.220Z,71.10
2023-05-14T10:02:44.081Z,71.20
2023-05-14T10:05:35.572Z,71.80
2023-05-14T10:08:27.667Z,71.50
2023-05-14T10:11:22.364Z,71.30
2023-05-14T10:14:28.768Z,70.90
2023-05-14T10:17:19.890Z,71.70
2023-05-14T10:20:10.140Z,70.90
2023-05-14T10:22:58.861Z,71.80
2023-05-14T10:25:46.230Z,72.00
2023-05-14T10:28:33.766Z,71.00
2023-05-14T10:31:24.055Z,70.90
2023-05-14T10:34:40.982Z,71.50
2023-05-14T10:37:30.117Z,71.20
2023-05-14T10:40:19.302Z,71.20
2023-05-14T10:43:08.697Z,70.60
2023-05-14T10:45:56.454Z,70.90
2023-05-14T10:48:44.228Z,71.40
2023-05-14T10:51:32.356Z,71.20
2023-05-14T10:54:19.553Z,71.30
2023-05-14T10:57:11.490Z,71.40
2023-05-14T11:00:00.316Z,71.60
2023-05-14T11:02:47.627Z,70.90
2023-05-14T11:05:37.309Z,71.10
2023-05-14T11:08:29.413Z,70.80
2023-05-14T11:11:19.217Z,70.50
2023-05-14T11:14:08.465Z,71.00
2023-05-14T11:16:58.018Z,71.20
2023-05-14T11:19:45.977Z,71.40
2023-05-14T11:22:34.032Z,70.90
2023-05-14T11:25:22.857Z,71.00
2023-05-14T11:28:10.552Z,70.90
2023-05-14T11:30:57.784Z,70.40
2023-05-14T11:33:45.015Z,70.10
2023-05-14T11:36:32.338Z,69.70
2023-05-14T11:39:19.658Z,70.00
2023-05-14T11:42:12.590Z,69.60
2023-05-14T11:44:59.943Z,70.20
2023-05-14T11:47:47.169Z,70.30
2023-05-14T11:50:36.837Z,70.20
2023-05-14T11:53:29.579Z,70.10
2023-05-14T11:56:16.828Z,69.40
2023-05-14T11:59:04.117Z,69.30
2023-05-14T12:01:52.499Z,69.30
2023-05-14T12:04:40.630Z,69.20
2023-05-14T12:07:30.643Z,69.40
2023-05-14T12:10:17.951Z,69.30
2023-05-14T12:13:07.287Z,69.20
2023-05-14T12:15:56.783Z,69.80
2023-05-14T12:18:44.441Z,70.00
2023-05-14T12:21:32.083Z,70.00
2023-05-14T12:24:26.818Z,70.20
2023-05-14T12:27:14.032Z,69.80
2023-05-14T12:30:20.033Z,69.60
2023-05-14T12:33:08.434Z,69.20
2023-05-14T12:36:17.482Z,70.30
2023-05-14T12:39:08.178Z,70.00
2023-05-14T12:41:55.391Z,69.90
2023-05-14T12:44:42.717Z,69.50
2023-05-14T12:47:30.081Z,69.30
2023-05-14T12:50:17.464Z,68.70
2023-05-14T12:53:05.560Z,68.20
2023-05-14T12:55:53.090Z,68.60
2023-05-14T12:58:40.597Z,68.40
2023-05-14T13:01:27.919Z,68.80
2023-05-14T13:04:15.212Z,69.50
2023-05-14T13:07:02.525Z,69.20
2023-05-14T13:09:49.729Z,67.90
2023-05-14T13:12:36.962Z,68.20
2023-05-14T13:15:24.445Z,68.10
2023-05-14T13:18:11.732Z,67.30
2023-05-14T13:20:58.953Z,67.00
2023-05-14T13:23:46.717Z,66.60
2023-05-14T13:26:33.971Z,67.10
2023-05-14T13:29:24.003Z,67.40
2023-05-14T13:32:11.307Z,67.70
2023-05-14T13:34:58.488Z,67.70
2023-05-14T13:37:47.490Z,68.10
2023-05-14T13:40:34.689Z,67.40
2023-05-14T13:43:21.925Z,66.20
2023-05-14T13:46:09.226Z,66.70
2023-05-14T13:48:56.593Z,66.30
2023-05-14T13:51:44.000Z,65.40
2023-05-14T13:54:31.148Z,64.80
2023-05-14T13:57:19.697Z,65.30
2023-05-14T14:00:08.020Z,64.20
2023-05-14T14:02:55.231Z,64.00
2023-05-14T14:05:42.573Z,64.10
2023-05-14T14:08:31.146Z,64.20
2023-05-14T14:11:18.614Z,63.40
2023-05-14T14:14:06.022Z,63.20
2023-05-14T14:16:53.265Z,63.40
2023-05-14T14:19:40.872Z,62.30
2023-05-14T14:22:29.193Z,62.10
2023-05-14T14:25:16.678Z,62.90
2023-05-14T14:28:04.049Z,62.80
2023-05-14T14:30:51.255Z,62.80
2023-05-14T14:33:38.539Z,62.30
2023-05-14T14:36:25.771Z,61.50
2023-05-14T14:39:12.996Z,61.00
2023-05-14T14:42:00.164Z,61.20
2023-05-14T14:44:47.402Z,61.60
2023-05-14T14:47:34.742Z,62.10
2023-05-14T14:50:21.941Z,61.40
2023-05-14T14:53:09.328Z,61.60
2023-05-14T14:55:57.608Z,61.90
2023-05-14T14:58:45.622Z,61.70
2023-05-14T15:01:32.917Z,61.70
2023-05-14T15:04:20.135Z,62.00
2023-05-14T15:07:07.384Z,62.00
2023-05-14T15:09:54.647Z,61.00
2023-05-14T15:12:41.940Z,61.70
2023-05-14T15:15:29.150Z,62.10
2023-05-14T15:18:16.434Z,62.20
2023-05-14T15:21:03.742Z,61.80
2023-05-14T15:23:50.925Z,61.60
2023-05-14T15:26:38.111Z,61.40
2023-05-14T15:29:25.459Z,61.40
2023-05-14T15:32:12.673Z,62.40
2023-05-14T15:34:59.917Z,62.40
2023-05-14T15:37:47.095Z,62.00
2023-05-14T15:40:35.250Z,61.80
2023-05-14T15:43:22.485Z,62.20
2023-05-14T15:46:10.730Z,62.00
2023-05-14T15:48:58.301Z,62.30
2023-05-14T15:51:45.642Z,61.60
2023-05-14T15:54:32.878Z,60.70
2023-05-14T15:57:20.284Z,60.50
2023-05-14T16:00:11.161Z,60.00
2023-05-14T16:02:58.675Z,59.80
2023-05-14T16:05:46.244Z,60.30
2023-05-14T16:08:33.559Z,60.30
2023-05-14T16:11:21.573Z,60.30
2023-05-14T16:14:08.816Z,60.50
2023-05-14T16:16:56.381Z,60.20
2023-05-14T16:19:43.651Z,60.10
2023-05-14T16:22:33.280Z,59.90
2023-05-14T16:25:20.535Z,59.70
2023-05-14T16:28:08.045Z,60.00
2023-05-14T16:30:55.232Z,59.30
2023-05-14T16:33:42.488Z,58.90
2023-05-14T16:36:29.842Z,58.60
2023-05-14T16:39:17.534Z,58.40
2023-05-14T16:42:04.965Z,57.60
2023-05-14T16:44:52.130Z,57.00
2023-05-14T16:47:39.351Z,56.40
2023-05-14T16:50:26.979Z,56.00
2023-05-14T16:53:14.152Z,56.20
2023-05-14T16:56:01.432Z,55.90
2023-05-14T16:58:48.606Z,55.80
2023-05-14T17:01:35.843Z,55.60
2023-05-14T17:04:25.181Z,55.50
2023-05-14T17:07:12.500Z,55.30
2023-05-14T17:10:00.692Z,56.20
2023-05-14T17:12:48.363Z,57.20
2023-05-14T17:15:36.396Z,56.20
2023-05-14T17:18:23.601Z,55.40
2023-05-14T17:21:10.807Z,54.50
2023-05-14T17:23:58.228Z,54.60
2023-05-14T17:26:45.481Z,53.90
2023-05-14T17:29:32.830Z,54.00
2023-05-14T17:32:20.055Z,53.70
2023-05-14T17:35:09.660Z,53.20
2023-05-14T17:37:57.890Z,53.20
2023-05-14T17:40:46.132Z,53.80
2023-05-14T17:43:34.501Z,54.40
2023-05-14T17:46:21.924Z,55.00
2023-05-14T17:49:09.139Z,55.50
2023-05-14T17:51:56.412Z,55.90
2023-05-14T17:54:43.717Z,56.80
2023-05-14T17:57:31.023Z,57.20
2023-05-14T18:00:18.425Z,57.40
2023-05-14T18:03:05.877Z,58.30
2023-05-14T18:05:53.247Z,58.60
2023-05-14T18:08:41.007Z,58.90
2023-05-14T18:11:33.649Z,59.10
2023-05-14T18:14:20.876Z,59.30
2023-05-14T18:17:08.217Z,59.50
2023-05-14T18:19:55.569Z,59.70
2023-05-14T18:22:42.797Z,60.20
2023-05-14T18:25:30.113Z,60.80
2023-05-14T18:28:18.973Z,60.90
2023-05-14T18:31:06.267Z,61.00
2023-05-14T18:33:53.772Z,61.00
2023-05-14T18:36:41.183Z,61.50
2023-05-14T18:39:28.504Z,61.60
2023-05-14T18:42:16.758Z,61.60
2023-05-14T18:45:04.648Z,61.70
2023-05-14T18:47:52.165Z,61.40
2023-05-14T18:50:39.653Z,61.70
2023-05-14T18:53:27.330Z,61.80
2023-05-14T18:56:14.585Z,61.80
2023-05-14T18:59:01.905Z,61.60
2023-05-14T19:01:49.089Z,61.80
2023-05-14T19:04:50.621Z,61.80
2023-05-14T19:07:39.023Z,62.30
2023-05-14T19:10:26.329Z,62.40
2023-05-14T19:13:13.533Z,62.70
2023-05-14T19:16:00.950Z,63.00
2023-05-14T19:18:48.626Z,63.00
2023-05-14T19:21:35.922Z,63.00
2023-05-14T19:24:23.138Z,63.10
2023-05-14T19:27:11.139Z,63.20
2023-05-14T19:29:58.310Z,63.90
2023-05-14T19:32:45.611Z,63.40
2023-05-14T19:35:32.926Z,63.00
2023-05-14T19:38:20.967Z,63.40
2023-05-14T19:41:08.180Z,63.50
2023-05-14T19:43:55.429Z,63.20
2023-05-14T19:46:42.763Z,63.40
2023-05-14T19:49:30.001Z,63.40
2023-05-14T19:52:17.186Z,63.20
2023-05-14T19:55:04.789Z,63.60
2023-05-14T19:57:52.039Z,64.20
2023-05-14T20:00:39.279Z,63.90
2023-05-14T20:03:26.766Z,63.70
2023-05-14T20:06:14.261Z,63.90
2023-05-14T20:09:01.441Z,64.00
2023-05-14T20:11:48.700Z,64.20
2023-05-14T20:14:36.222Z,64.40
2023-05-14T20:17:23.570Z,64.50
2023-05-14T20:20:12.078Z,64.70
2023-05-14T20:22:59.324Z,64.70
2023-05-14T20:25:49.678Z,65.10
2023-05-14T20:28:37.070Z,65.20
2023-05-14T20:31:24.370Z,65.30
2023-05-14T20:34:11.696Z,65.40
2023-05-14T20:36:58.935Z,65.50
2023-05-14T20:39:49.176Z,65.70
2023-05-14T20:42:36.549Z,65.90
2023-05-14T20:45:23.955Z,65.70
2023-05-14T20:48:15.165Z,65.70
2023-05-14T20:51:04.902Z,65.70
2023-05-14T20:53:52.078Z,65.80
2023-05-14T20:56:39.294Z,66.00
2023-05-14T20:59:26.462Z,66.20
2023-05-14T21:02:13.934Z,66.20
2023-05-14T21:05:01.301Z,66.20
2023-05-14T21:07:48.719Z,66.20
2023-05-14T21:10:35.950Z,66.20
2023-05-14T21:13:23.201Z,66.20
2023-05-14T21:16:12.787Z,66.40
2023-05-14T21:19:00.177Z,66.60
2023-05-14T21:21:47.441Z,66.60
2023-05-14T21:24:34.688Z,66.70
2023-05-14T21:27:22.298Z,66.80
2023-05-14T21:30:10.154Z,67.00
2023-05-14T21:32:57.369Z,66.80
2023-05-14T21:35:44.687Z,66.70
2023-05-14T21:38:32.581Z,66.80
2023-05-14T21:41:19.872Z,67.20
2023-05-14T21:44:07.192Z,67.10
2023-05-14T21:46:54.506Z,67.10
2023-05-14T21:49:42.013Z,67.30
2023-05-14T21:52:29.292Z,67.50
2023-05-14T21:55:16.467Z,67.60
2023-05-14T21:58:03.895Z,67.60
2023-05-14T22:00:51.203Z,67.70
2023-05-14T22:03:38.572Z,67.70
2023-05-14T22:06:25.915Z,67.60
2023-05-14T22:09:13.100Z,67.40
2023-05-14T22:12:00.287Z,67.30
2023-05-14T22:14:47.815Z,67.40
2023-05-14T22:17:35.056Z,67.50
2023-05-14T22:20:22.370Z,67.50
2023-05-14T22:23:09.585Z,67.40
2023-05-14T22:25:57.340Z,67.50
2023-05-14T22:28:44.615Z,67.80
2023-05-14T22:31:31.891Z,67.70
2023-05-14T22:34:19.466Z,67.80
2023-05-14T22:37:06.672Z,67.90
2023-05-14T22:39:53.856Z,67.80
2023-05-14T22:42:41.236Z,67.70
2023-05-14T22:45:28.445Z,67.70
2023-05-14T22:48:15.908Z,67.70
2023-05-14T22:51:03.128Z,67.80
2023-05-14T22:53:50.540Z,67.70
2023-05-14T22:56:38.514Z,67.80
2023-05-14T22:59:25.722Z,67.80
2023-05-14T23:02:13.138Z,67.90
2023-05-14T23:05:00.438Z,67.90
2023-05-14T23:07:47.744Z,67.90
2023-05-14T23:10:38.086Z,68.10
2023-05-14T23:13:25.259Z,68.00
2023-05-14T23:16:12.583Z,68.10
2023-05-14T23:18:59.945Z,68.00
2023-05-14T23:21:47.345Z,67.90
2023-05-14T23:24:34.702Z,67.90
2023-05-14T23:27:22.208Z,67.80
2023-05-14T23:30:10.059Z,67.90
2023-05-14T23:32:57.388Z,68.00
2023-05-14T23:35:44.651Z,68.70
2023-05-14T23:38:32.182Z,67.90
2023-05-14T23:41:19.415Z,67.90
2023-05-14T23:44:07.331Z,67.80
2023-05-14T23:46:54.578Z,68.00
2023-05-14T23:49:41.789Z,68.00
2023-05-14T23:52:28.982Z,68.10
2023-05-14T23:55:16.225Z,68.00
2023-05-14T23:58:03.546Z,67.80
